sensor_id;sensor_type;location;lat;lon;timestamp;temperature;humidity
45983;DHT22;31711;47.158;7.346;2022-08-04T00:02:24;21.10;99.90
45983;DHT22;31711;47.158;7.346;2022-08-04T00:04:55;21.20;99.90
45983;DHT22;31711;47.158;7.346;2022-08-04T00:09:58;21.20;99.90
45983;DHT22;31711;47.158;7.346;2022-08-04T00:12:26;21.20;99.90
45983;DHT22;31711;47.158;7.346;2022-08-04T00:14:57;21.20;99.90
45983;DHT22;31711;47.158;7.346;2022-08-04T00:17:31;21.10;99.90
45983;DHT22;31711;47.158;7.346;2022-08-04T00:20:00;21.00;99.90
45983;DHT22;31711;47.158;7.346;2022-08-04T00:22:29;21.00;99.90
45983;DHT22;31711;47.158;7.346;2022-08-04T00:24:56;21.00;99.90
45983;DHT22;31711;47.158;7.346;2022-08-04T00:27:23;20.90;99.90
45983;DHT22;31711;47.158;7.346;2022-08-04T00:29:49;20.90;99.90
45983;DHT22;31711;47.158;7.346;2022-08-04T00:32:17;20.90;99.90
45983;DHT22;31711;47.158;7.346;2022-08-04T00:34:43;20.80;99.90
45983;DHT22;31711;47.158;7.346;2022-08-04T00:37:09;20.80;99.90
45983;DHT22;31711;47.158;7.346;2022-08-04T00:39:35;20.80;99.90
45983;DHT22;31711;47.158;7.346;2022-08-04T00:44:59;20.70;99.90
45983;DHT22;31711;47.158;7.346;2022-08-04T00:53:03;20.60;99.90
45983;DHT22;31711;47.158;7.346;2022-08-04T00:58:41;20.60;99.90
45983;DHT22;31711;47.158;7.346;2022-08-04T01:01:28;20.40;99.90
45983;DHT22;31711;47.158;7.346;2022-08-04T01:04:15;20.50;99.90
45983;DHT22;31711;47.158;7.346;2022-08-04T01:09:30;20.40;99.90
45983;DHT22;31711;47.158;7.346;2022-08-04T01:12:51;20.40;99.90
45983;DHT22;31711;47.158;7.346;2022-08-04T01:15:23;20.40;99.90
45983;DHT22;31711;47.158;7.346;2022-08-04T01:17:58;20.30;99.90
45983;DHT22;31711;47.158;7.346;2022-08-04T01:23:48;20.20;99.90
45983;DHT22;31711;47.158;7.346;2022-08-04T01:29:12;20.20;99.90
45983;DHT22;31711;47.158;7.346;2022-08-04T01:34:21;20.20;99.90
45983;DHT22;31711;47.158;7.346;2022-08-04T01:37:07;20.20;99.90
45983;DHT22;31711;47.158;7.346;2022-08-04T01:39:34;20.10;99.90
45983;DHT22;31711;47.158;7.346;2022-08-04T01:42:09;20.10;99.90
45983;DHT22;31711;47.158;7.346;2022-08-04T01:44:37;20.10;99.90
45983;DHT22;31711;47.158;7.346;2022-08-04T01:47:04;20.10;99.90
45983;DHT22;31711;47.158;7.346;2022-08-04T01:49:31;20.10;99.90
45983;DHT22;31711;47.158;7.346;2022-08-04T01:51:58;20.10;99.90
45983;DHT22;31711;47.158;7.346;2022-08-04T01:54:25;20.10;99.90
45983;DHT22;31711;47.158;7.346;2022-08-04T01:56:53;20.10;99.90
45983;DHT22;31711;47.158;7.346;2022-08-04T01:59:21;20.00;99.90
45983;DHT22;31711;47.158;7.346;2022-08-04T02:01:47;20.00;99.90
45983;DHT22;31711;47.158;7.346;2022-08-04T02:04:15;20.00;99.90
45983;DHT22;31711;47.158;7.346;2022-08-04T02:10:50;20.00;99.90
45983;DHT22;31711;47.158;7.346;2022-08-04T02:12:55;19.90;99.90
45983;DHT22;31711;47.158;7.346;2022-08-04T02:15:41;19.90;99.90
45983;DHT22;31711;47.158;7.346;2022-08-04T02:18:25;19.80;99.90
45983;DHT22;31711;47.158;7.346;2022-08-04T02:20:57;19.80;99.90
45983;DHT22;31711;47.158;7.346;2022-08-04T02:23:36;19.80;99.90
45983;DHT22;31711;47.158;7.346;2022-08-04T02:26:06;19.70;99.90
45983;DHT22;31711;47.158;7.346;2022-08-04T02:28:53;19.70;99.90
45983;DHT22;31711;47.158;7.346;2022-08-04T02:31:32;19.70;99.90
45983;DHT22;31711;47.158;7.346;2022-08-04T02:34:13;19.70;99.90
45983;DHT22;31711;47.158;7.346;2022-08-04T02:36:42;19.60;99.90
45983;DHT22;31711;47.158;7.346;2022-08-04T02:39:11;19.60;99.90
45983;DHT22;31711;47.158;7.346;2022-08-04T02:41:39;19.60;99.90
45983;DHT22;31711;47.158;7.346;2022-08-04T02:44:07;19.60;99.90
45983;DHT22;31711;47.158;7.346;2022-08-04T02:46:35;19.60;99.90
45983;DHT22;31711;47.158;7.346;2022-08-04T02:49:10;19.60;99.90
45983;DHT22;31711;47.158;7.346;2022-08-04T02:51:40;19.50;99.90
45983;DHT22;31711;47.158;7.346;2022-08-04T02:54:06;19.40;99.90
45983;DHT22;31711;47.158;7.346;2022-08-04T02:56:34;19.40;99.90
45983;DHT22;31711;47.158;7.346;2022-08-04T02:59:03;19.30;99.90
45983;DHT22;31711;47.158;7.346;2022-08-04T03:01:30;19.10;99.90
45983;DHT22;31711;47.158;7.346;2022-08-04T03:27:10;19.20;99.90
45983;DHT22;31711;47.158;7.346;2022-08-04T03:32:54;19.00;99.90
45983;DHT22;31711;47.158;7.346;2022-08-04T03:53:08;18.90;99.90
45983;DHT22;31711;47.158;7.346;2022-08-04T04:00:44;18.90;99.90
45983;DHT22;31711;47.158;7.346;2022-08-04T04:16:12;18.80;99.90
45983;DHT22;31711;47.158;7.346;2022-08-04T04:22:02;18.70;99.90
45983;DHT22;31711;47.158;7.346;2022-08-04T04:24:37;18.60;99.90
45983;DHT22;31711;47.158;7.346;2022-08-04T04:47:08;19.00;99.90
45983;DHT22;31711;47.158;7.346;2022-08-04T04:50:01;19.10;99.90
45983;DHT22;31711;47.158;7.346;2022-08-04T04:55:20;19.20;99.90
45983;DHT22;31711;47.158;7.346;2022-08-04T04:57:50;19.20;99.90
45983;DHT22;31711;47.158;7.346;2022-08-04T05:00:17;19.30;99.90
45983;DHT22;31711;47.158;7.346;2022-08-04T05:08:35;19.50;99.90
45983;DHT22;31711;47.158;7.346;2022-08-04T05:13:47;19.60;99.90
45983;DHT22;31711;47.158;7.346;2022-08-04T05:21:55;19.90;99.90
45983;DHT22;31711;47.158;7.346;2022-08-04T05:24:26;19.90;99.90
45983;DHT22;31711;47.158;7.346;2022-08-04T05:27:01;20.00;99.90
45983;DHT22;31711;47.158;7.346;2022-08-04T05:29:34;20.10;99.90
45983;DHT22;31711;47.158;7.346;2022-08-04T05:32:04;20.20;99.90
45983;DHT22;31711;47.158;7.346;2022-08-04T05:34:59;20.20;99.90
45983;DHT22;31711;47.158;7.346;2022-08-04T05:37:27;20.20;99.90
45983;DHT22;31711;47.158;7.346;2022-08-04T05:40:01;20.20;99.90
45983;DHT22;31711;47.158;7.346;2022-08-04T05:42:30;20.30;99.90
45983;DHT22;31711;47.158;7.346;2022-08-04T05:44:58;20.40;99.90
45983;DHT22;31711;47.158;7.346;2022-08-04T05:47:24;20.50;99.90
45983;DHT22;31711;47.158;7.346;2022-08-04T05:49:51;20.50;99.90
45983;DHT22;31711;47.158;7.346;2022-08-04T05:52:17;20.60;99.90
45983;DHT22;31711;47.158;7.346;2022-08-04T05:54:44;20.70;99.90
45983;DHT22;31711;47.158;7.346;2022-08-04T05:57:11;20.80;99.90
45983;DHT22;31711;47.158;7.346;2022-08-04T05:59:39;20.90;99.90
45983;DHT22;31711;47.158;7.346;2022-08-04T06:02:08;21.10;99.90
45983;DHT22;31711;47.158;7.346;2022-08-04T06:04:38;21.10;99.90
45983;DHT22;31711;47.158;7.346;2022-08-04T06:07:05;21.20;99.90
45983;DHT22;31711;47.158;7.346;2022-08-04T06:09:32;21.30;99.90
45983;DHT22;31711;47.158;7.346;2022-08-04T06:12:05;21.40;99.90
45983;DHT22;31711;47.158;7.346;2022-08-04T06:14:39;21.50;99.90
45983;DHT22;31711;47.158;7.346;2022-08-04T06:17:07;21.60;99.90
45983;DHT22;31711;47.158;7.346;2022-08-04T06:19:34;21.60;99.90
45983;DHT22;31711;47.158;7.346;2022-08-04T06:22:03;21.70;99.90
45983;DHT22;31711;47.158;7.346;2022-08-04T06:24:30;21.80;99.90
45983;DHT22;31711;47.158;7.346;2022-08-04T06:26:57;21.80;99.90
45983;DHT22;31711;47.158;7.346;2022-08-04T06:29:26;21.90;99.90
45983;DHT22;31711;47.158;7.346;2022-08-04T06:32:03;22.00;99.90
45983;DHT22;31711;47.158;7.346;2022-08-04T06:34:53;22.10;99.90
45983;DHT22;31711;47.158;7.346;2022-08-04T06:37:21;22.20;99.90
45983;DHT22;31711;47.158;7.346;2022-08-04T06:39:48;22.20;99.90
45983;DHT22;31711;47.158;7.346;2022-08-04T06:42:21;22.30;99.90
45983;DHT22;31711;47.158;7.346;2022-08-04T06:44:50;22.40;99.90
45983;DHT22;31711;47.158;7.346;2022-08-04T06:47:18;22.50;99.90
45983;DHT22;31711;47.158;7.346;2022-08-04T06:49:50;22.50;99.90
45983;DHT22;31711;47.158;7.346;2022-08-04T06:52:18;22.60;99.90
45983;DHT22;31711;47.158;7.346;2022-08-04T06:54:45;22.70;99.90
45983;DHT22;31711;47.158;7.346;2022-08-04T06:57:19;22.80;99.90
45983;DHT22;31711;47.158;7.346;2022-08-04T06:59:55;22.90;99.90
45983;DHT22;31711;47.158;7.346;2022-08-04T07:02:25;23.00;99.90
45983;DHT22;31711;47.158;7.346;2022-08-04T07:04:52;23.10;99.90
45983;DHT22;31711;47.158;7.346;2022-08-04T07:07:18;23.20;99.90
45983;DHT22;31711;47.158;7.346;2022-08-04T07:09:44;23.30;99.90
45983;DHT22;31711;47.158;7.346;2022-08-04T07:12:11;23.30;99.90
45983;DHT22;31711;47.158;7.346;2022-08-04T07:14:39;23.40;99.90
45983;DHT22;31711;47.158;7.346;2022-08-04T07:17:07;23.50;99.90
45983;DHT22;31711;47.158;7.346;2022-08-04T07:19:34;23.60;99.90
45983;DHT22;31711;47.158;7.346;2022-08-04T07:22:02;23.70;99.90
45983;DHT22;31711;47.158;7.346;2022-08-04T07:24:31;23.70;99.90
45983;DHT22;31711;47.158;7.346;2022-08-04T07:26:58;23.80;99.90
45983;DHT22;31711;47.158;7.346;2022-08-04T07:29:24;23.80;99.90
45983;DHT22;31711;47.158;7.346;2022-08-04T07:31:50;23.80;99.90
45983;DHT22;31711;47.158;7.346;2022-08-04T07:34:19;23.80;99.90
45983;DHT22;31711;47.158;7.346;2022-08-04T07:36:45;24.00;99.90
45983;DHT22;31711;47.158;7.346;2022-08-04T07:39:12;24.10;99.90
45983;DHT22;31711;47.158;7.346;2022-08-04T07:41:41;24.30;99.90
45983;DHT22;31711;47.158;7.346;2022-08-04T07:44:08;24.40;99.90
45983;DHT22;31711;47.158;7.346;2022-08-04T07:46:35;24.50;99.90
45983;DHT22;31711;47.158;7.346;2022-08-04T07:49:02;24.60;99.90
45983;DHT22;31711;47.158;7.346;2022-08-04T07:51:29;24.80;99.90
45983;DHT22;31711;47.158;7.346;2022-08-04T07:54:00;24.80;99.90
45983;DHT22;31711;47.158;7.346;2022-08-04T07:56:29;25.00;99.90
45983;DHT22;31711;47.158;7.346;2022-08-04T07:58:56;25.10;99.90
45983;DHT22;31711;47.158;7.346;2022-08-04T08:01:23;25.00;99.90
45983;DHT22;31711;47.158;7.346;2022-08-04T08:03:51;25.20;99.90
45983;DHT22;31711;47.158;7.346;2022-08-04T08:06:17;25.40;99.90
45983;DHT22;31711;47.158;7.346;2022-08-04T08:08:43;25.50;99.90
45983;DHT22;31711;47.158;7.346;2022-08-04T08:11:09;25.50;99.90
45983;DHT22;31711;47.158;7.346;2022-08-04T08:13:36;25.70;99.90
45983;DHT22;31711;47.158;7.346;2022-08-04T08:16:03;25.80;99.90
45983;DHT22;31711;47.158;7.346;2022-08-04T08:18:30;25.90;99.90
45983;DHT22;31711;47.158;7.346;2022-08-04T08:20:56;25.90;99.90
45983;DHT22;31711;47.158;7.346;2022-08-04T08:23:23;25.90;99.90
45983;DHT22;31711;47.158;7.346;2022-08-04T08:25:50;26.00;99.90
45983;DHT22;31711;47.158;7.346;2022-08-04T08:28:16;26.10;99.90
45983;DHT22;31711;47.158;7.346;2022-08-04T08:30:42;26.20;99.90
45983;DHT22;31711;47.158;7.346;2022-08-04T08:33:14;26.40;99.90
45983;DHT22;31711;47.158;7.346;2022-08-04T08:39:00;26.50;99.90
45983;DHT22;31711;47.158;7.346;2022-08-04T08:44:24;26.80;99.90
45983;DHT22;31711;47.158;7.346;2022-08-04T08:50:02;26.90;99.90
45983;DHT22;31711;47.158;7.346;2022-08-04T08:52:43;27.00;99.90
45983;DHT22;31711;47.158;7.346;2022-08-04T09:00:59;27.30;99.90
45983;DHT22;31711;47.158;7.346;2022-08-04T09:11:55;27.60;99.60
45983;DHT22;31711;47.158;7.346;2022-08-04T09:14:37;27.50;99.10
45983;DHT22;31711;47.158;7.346;2022-08-04T09:17:09;27.60;99.40
45983;DHT22;31711;47.158;7.346;2022-08-04T09:19:43;27.70;98.80
45983;DHT22;31711;47.158;7.346;2022-08-04T09:22:19;27.90;97.80
45983;DHT22;31711;47.158;7.346;2022-08-04T09:27:38;28.10;98.30
45983;DHT22;31711;47.158;7.346;2022-08-04T09:30:09;28.20;98.80
45983;DHT22;31711;47.158;7.346;2022-08-04T09:32:56;28.40;97.60
45983;DHT22;31711;47.158;7.346;2022-08-04T09:39:00;28.40;97.50
45983;DHT22;31711;47.158;7.346;2022-08-04T09:44:38;28.70;97.90
45983;DHT22;31711;47.158;7.346;2022-08-04T10:01:28;29.40;95.90
45983;DHT22;31711;47.158;7.346;2022-08-04T10:04:00;29.50;95.50
45983;DHT22;31711;47.158;7.346;2022-08-04T10:09:51;29.70;95.70
45983;DHT22;31711;47.158;7.346;2022-08-04T10:12:30;29.80;95.30
45983;DHT22;31711;47.158;7.346;2022-08-04T10:28:02;30.40;94.10
45983;DHT22;31711;47.158;7.346;2022-08-04T10:30:33;30.40;92.80
45983;DHT22;31711;47.158;7.346;2022-08-04T10:36:00;30.60;93.10
45983;DHT22;31711;47.158;7.346;2022-08-04T10:38:53;30.60;92.70
45983;DHT22;31711;47.158;7.346;2022-08-04T10:46:34;30.50;92.60
45983;DHT22;31711;47.158;7.346;2022-08-04T10:51:58;30.80;92.00
45983;DHT22;31711;47.158;7.346;2022-08-04T10:54:36;30.90;91.60
45983;DHT22;31711;47.158;7.346;2022-08-04T10:57:22;31.10;91.70
45983;DHT22;31711;47.158;7.346;2022-08-04T11:00:03;31.20;92.30
45983;DHT22;31711;47.158;7.346;2022-08-04T11:02:44;31.40;92.30
45983;DHT22;31711;47.158;7.346;2022-08-04T11:05:26;31.50;92.30
45983;DHT22;31711;47.158;7.346;2022-08-04T11:07:59;31.60;91.40
45983;DHT22;31711;47.158;7.346;2022-08-04T11:10:30;31.80;91.60
45983;DHT22;31711;47.158;7.346;2022-08-04T11:13:02;31.80;91.30
45983;DHT22;31711;47.158;7.346;2022-08-04T11:15:35;31.90;91.80
45983;DHT22;31711;47.158;7.346;2022-08-04T11:18:07;32.00;91.80
45983;DHT22;31711;47.158;7.346;2022-08-04T11:20:42;32.10;90.90
45983;DHT22;31711;47.158;7.346;2022-08-04T11:23:13;32.30;91.30
45983;DHT22;31711;47.158;7.346;2022-08-04T11:25:52;32.40;90.50
45983;DHT22;31711;47.158;7.346;2022-08-04T11:29:33;32.40;88.40
45983;DHT22;31711;47.158;7.346;2022-08-04T11:31:42;32.40;88.80
45983;DHT22;31711;47.158;7.346;2022-08-04T11:34:18;32.50;88.70
45983;DHT22;31711;47.158;7.346;2022-08-04T11:39:42;32.60;88.30
45983;DHT22;31711;47.158;7.346;2022-08-04T11:42:20;32.70;89.10
45983;DHT22;31711;47.158;7.346;2022-08-04T11:44:59;32.90;86.80
45983;DHT22;31711;47.158;7.346;2022-08-04T11:47:32;32.90;85.10
45983;DHT22;31711;47.158;7.346;2022-08-04T11:50:28;32.70;85.70
45983;DHT22;31711;47.158;7.346;2022-08-04T11:52:57;33.00;84.90
45983;DHT22;31711;47.158;7.346;2022-08-04T11:55:26;33.10;81.20
45983;DHT22;31711;47.158;7.346;2022-08-04T11:57:53;33.20;85.40
45983;DHT22;31711;47.158;7.346;2022-08-04T12:00:20;33.40;83.90
45983;DHT22;31711;47.158;7.346;2022-08-04T12:05:57;33.60;80.70
45983;DHT22;31711;47.158;7.346;2022-08-04T12:09:15;33.80;83.00
45983;DHT22;31711;47.158;7.346;2022-08-04T12:14:16;33.90;78.80
45983;DHT22;31711;47.158;7.346;2022-08-04T12:16:51;34.20;82.50
45983;DHT22;31711;47.158;7.346;2022-08-04T12:19:49;34.20;80.40
45983;DHT22;31711;47.158;7.346;2022-08-04T12:22:22;34.40;80.70
45983;DHT22;31711;47.158;7.346;2022-08-04T12:24:53;34.70;79.30
45983;DHT22;31711;47.158;7.346;2022-08-04T12:27:28;34.80;76.80
45983;DHT22;31711;47.158;7.346;2022-08-04T12:29:56;34.70;78.00
45983;DHT22;31711;47.158;7.346;2022-08-04T12:32:35;34.80;77.20
45983;DHT22;31711;47.158;7.346;2022-08-04T12:35:14;34.60;75.50
45983;DHT22;31711;47.158;7.346;2022-08-04T12:38:06;34.50;78.50
45983;DHT22;31711;47.158;7.346;2022-08-04T12:45:52;34.90;78.50
45983;DHT22;31711;47.158;7.346;2022-08-04T12:48:21;35.10;74.30
45983;DHT22;31711;47.158;7.346;2022-08-04T12:50:52;35.60;77.90
45983;DHT22;31711;47.158;7.346;2022-08-04T12:53:21;35.40;74.70
45983;DHT22;31711;47.158;7.346;2022-08-04T12:55:48;35.70;71.80
45983;DHT22;31711;47.158;7.346;2022-08-04T12:58:25;35.70;72.40
45983;DHT22;31711;47.158;7.346;2022-08-04T13:00:55;35.90;73.30
45983;DHT22;31711;47.158;7.346;2022-08-04T13:03:28;36.00;72.40
45983;DHT22;31711;47.158;7.346;2022-08-04T13:05:55;36.30;74.50
45983;DHT22;31711;47.158;7.346;2022-08-04T13:08:22;36.40;73.90
45983;DHT22;31711;47.158;7.346;2022-08-04T13:10:52;36.40;70.40
45983;DHT22;31711;47.158;7.346;2022-08-04T13:13:24;36.50;71.20
45983;DHT22;31711;47.158;7.346;2022-08-04T13:15:59;36.50;69.10
45983;DHT22;31711;47.158;7.346;2022-08-04T13:18:28;36.30;70.90
45983;DHT22;31711;47.158;7.346;2022-08-04T13:20:56;36.30;68.40
45983;DHT22;31711;47.158;7.346;2022-08-04T13:23:24;36.50;70.20
45983;DHT22;31711;47.158;7.346;2022-08-04T13:25:52;36.70;67.90
45983;DHT22;31711;47.158;7.346;2022-08-04T13:28:23;36.80;67.80
45983;DHT22;31711;47.158;7.346;2022-08-04T13:30:58;36.70;69.70
45983;DHT22;31711;47.158;7.346;2022-08-04T13:33:36;36.70;66.30
45983;DHT22;31711;47.158;7.346;2022-08-04T13:36:04;36.50;67.20
45983;DHT22;31711;47.158;7.346;2022-08-04T13:38:32;36.80;68.20
45983;DHT22;31711;47.158;7.346;2022-08-04T13:41:02;36.60;65.10
45983;DHT22;31711;47.158;7.346;2022-08-04T13:43:46;35.70;65.80
45983;DHT22;31711;47.158;7.346;2022-08-04T13:46:16;36.20;68.20
45983;DHT22;31711;47.158;7.346;2022-08-04T13:48:43;36.60;67.60
45983;DHT22;31711;47.158;7.346;2022-08-04T13:51:11;37.00;69.00
45983;DHT22;31711;47.158;7.346;2022-08-04T13:53:39;37.20;67.90
45983;DHT22;31711;47.158;7.346;2022-08-04T13:56:08;37.10;65.70
45983;DHT22;31711;47.158;7.346;2022-08-04T13:58:46;37.30;67.50
45983;DHT22;31711;47.158;7.346;2022-08-04T14:01:18;37.50;68.30
45983;DHT22;31711;47.158;7.346;2022-08-04T14:03:56;37.30;65.00
45983;DHT22;31711;47.158;7.346;2022-08-04T14:06:30;37.70;64.50
45983;DHT22;31711;47.158;7.346;2022-08-04T14:09:18;37.30;63.70
45983;DHT22;31711;47.158;7.346;2022-08-04T14:11:55;36.80;63.50
45983;DHT22;31711;47.158;7.346;2022-08-04T14:20:00;36.60;62.80
45983;DHT22;31711;47.158;7.346;2022-08-04T14:24:56;36.60;63.40
45983;DHT22;31711;47.158;7.346;2022-08-04T14:27:22;36.80;63.40
45983;DHT22;31711;47.158;7.346;2022-08-04T14:29:48;36.50;61.70
45983;DHT22;31711;47.158;7.346;2022-08-04T14:32:14;36.40;61.80
45983;DHT22;31711;47.158;7.346;2022-08-04T14:34:42;36.40;61.20
45983;DHT22;31711;47.158;7.346;2022-08-04T14:37:10;36.60;61.80
45983;DHT22;31711;47.158;7.346;2022-08-04T14:39:37;36.60;62.50
45983;DHT22;31711;47.158;7.346;2022-08-04T14:42:05;36.60;62.30
45983;DHT22;31711;47.158;7.346;2022-08-04T14:44:31;36.70;61.80
45983;DHT22;31711;47.158;7.346;2022-08-04T14:46:57;36.80;60.50
45983;DHT22;31711;47.158;7.346;2022-08-04T14:49:26;36.70;59.90
45983;DHT22;31711;47.158;7.346;2022-08-04T14:51:55;36.80;62.70
45983;DHT22;31711;47.158;7.346;2022-08-04T14:54:33;36.90;61.00
45983;DHT22;31711;47.158;7.346;2022-08-04T14:57:04;36.90;60.50
45983;DHT22;31711;47.158;7.346;2022-08-04T14:59:43;37.00;61.30
45983;DHT22;31711;47.158;7.346;2022-08-04T15:02:11;37.00;59.70
45983;DHT22;31711;47.158;7.346;2022-08-04T15:04:38;36.90;61.30
45983;DHT22;31711;47.158;7.346;2022-08-04T15:07:05;36.90;60.20
45983;DHT22;31711;47.158;7.346;2022-08-04T15:09:32;36.80;59.80
45983;DHT22;31711;47.158;7.346;2022-08-04T15:11:59;36.80;59.50
45983;DHT22;31711;47.158;7.346;2022-08-04T15:14:25;36.60;59.50
45983;DHT22;31711;47.158;7.346;2022-08-04T15:16:52;36.70;60.30
45983;DHT22;31711;47.158;7.346;2022-08-04T15:19:18;36.70;59.60
45983;DHT22;31711;47.158;7.346;2022-08-04T15:21:44;36.60;58.90
45983;DHT22;31711;47.158;7.346;2022-08-04T15:24:10;36.20;59.30
45983;DHT22;31711;47.158;7.346;2022-08-04T15:26:49;36.10;60.40
45983;DHT22;31711;47.158;7.346;2022-08-04T15:32:02;35.90;60.00
45983;DHT22;31711;47.158;7.346;2022-08-04T15:34:46;35.90;60.80
45983;DHT22;31711;47.158;7.346;2022-08-04T15:37:26;35.90;60.20
45983;DHT22;31711;47.158;7.346;2022-08-04T15:45:48;35.60;60.20
45983;DHT22;31711;47.158;7.346;2022-08-04T15:53:24;35.40;59.10
45983;DHT22;31711;47.158;7.346;2022-08-04T15:55:50;35.40;59.90
45983;DHT22;31711;47.158;7.346;2022-08-04T15:58:18;35.30;58.90
45983;DHT22;31711;47.158;7.346;2022-08-04T16:06:00;34.80;60.90
45983;DHT22;31711;47.158;7.346;2022-08-04T16:21:49;34.80;62.50
45983;DHT22;31711;47.158;7.346;2022-08-04T16:24:37;34.80;62.70
45983;DHT22;31711;47.158;7.346;2022-08-04T16:27:05;34.70;63.70
45983;DHT22;31711;47.158;7.346;2022-08-04T16:29:44;34.70;63.60
45983;DHT22;31711;47.158;7.346;2022-08-04T16:32:20;34.70;62.80
45983;DHT22;31711;47.158;7.346;2022-08-04T16:34:58;34.80;62.60
45983;DHT22;31711;47.158;7.346;2022-08-04T16:40:25;34.90;61.80
45983;DHT22;31711;47.158;7.346;2022-08-04T16:43:08;34.70;61.80
45983;DHT22;31711;47.158;7.346;2022-08-04T16:45:51;34.70;62.70
45983;DHT22;31711;47.158;7.346;2022-08-04T16:53:36;34.30;65.00
45983;DHT22;31711;47.158;7.346;2022-08-04T16:56:03;34.30;66.10
45983;DHT22;31711;47.158;7.346;2022-08-04T16:58:34;34.30;67.50
45983;DHT22;31711;47.158;7.346;2022-08-04T17:01:09;34.20;68.70
45983;DHT22;31711;47.158;7.346;2022-08-04T17:03:36;34.00;68.50
45983;DHT22;31711;47.158;7.346;2022-08-04T17:06:05;33.90;66.80
45983;DHT22;31711;47.158;7.346;2022-08-04T17:08:31;33.80;66.00
45983;DHT22;31711;47.158;7.346;2022-08-04T17:10:58;33.60;64.90
45983;DHT22;31711;47.158;7.346;2022-08-04T17:13:26;33.50;65.50
45983;DHT22;31711;47.158;7.346;2022-08-04T17:15:58;33.20;65.10
45983;DHT22;31711;47.158;7.346;2022-08-04T17:18:46;33.00;64.70
45983;DHT22;31711;47.158;7.346;2022-08-04T17:21:18;33.00;66.60
45983;DHT22;31711;47.158;7.346;2022-08-04T17:23:46;32.90;66.50
45983;DHT22;31711;47.158;7.346;2022-08-04T17:26:17;32.80;67.60
45983;DHT22;31711;47.158;7.346;2022-08-04T17:28:47;32.80;68.30
45983;DHT22;31711;47.158;7.346;2022-08-04T17:31:13;32.70;68.60
45983;DHT22;31711;47.158;7.346;2022-08-04T17:33:43;32.60;68.90
45983;DHT22;31711;47.158;7.346;2022-08-04T17:36:10;32.50;69.70
45983;DHT22;31711;47.158;7.346;2022-08-04T17:38:45;32.30;66.10
45983;DHT22;31711;47.158;7.346;2022-08-04T17:41:13;32.20;65.00
45983;DHT22;31711;47.158;7.346;2022-08-04T17:44:00;32.10;64.20
45983;DHT22;31711;47.158;7.346;2022-08-04T17:48:56;32.00;64.90
45983;DHT22;31711;47.158;7.346;2022-08-04T17:51:40;31.90;64.40
45983;DHT22;31711;47.158;7.346;2022-08-04T17:54:07;31.80;64.90
45983;DHT22;31711;47.158;7.346;2022-08-04T17:57:00;31.80;64.70
45983;DHT22;31711;47.158;7.346;2022-08-04T17:59:43;31.70;65.40
45983;DHT22;31711;47.158;7.346;2022-08-04T18:02:10;31.70;65.50
45983;DHT22;31711;47.158;7.346;2022-08-04T18:07:15;31.50;65.10
45983;DHT22;31711;47.158;7.346;2022-08-04T18:09:49;31.50;65.80
45983;DHT22;31711;47.158;7.346;2022-08-04T18:12:30;31.30;65.30
45983;DHT22;31711;47.158;7.346;2022-08-04T18:15:04;31.30;65.90
45983;DHT22;31711;47.158;7.346;2022-08-04T18:17:38;31.20;65.70
45983;DHT22;31711;47.158;7.346;2022-08-04T18:20:15;31.10;65.20
45983;DHT22;31711;47.158;7.346;2022-08-04T18:22:45;31.10;65.00
45983;DHT22;31711;47.158;7.346;2022-08-04T18:25:15;31.00;65.40
45983;DHT22;31711;47.158;7.346;2022-08-04T18:27:55;31.00;65.30
45983;DHT22;31711;47.158;7.346;2022-08-04T18:30:25;30.90;65.10
45983;DHT22;31711;47.158;7.346;2022-08-04T18:32:53;30.90;65.40
45983;DHT22;31711;47.158;7.346;2022-08-04T18:35:20;30.80;65.10
45983;DHT22;31711;47.158;7.346;2022-08-04T18:37:47;30.80;65.30
45983;DHT22;31711;47.158;7.346;2022-08-04T18:40:15;30.70;65.20
45983;DHT22;31711;47.158;7.346;2022-08-04T18:42:41;30.70;65.50
45983;DHT22;31711;47.158;7.346;2022-08-04T18:45:08;30.60;66.40
45983;DHT22;31711;47.158;7.346;2022-08-04T18:47:35;30.60;65.40
45983;DHT22;31711;47.158;7.346;2022-08-04T18:50:01;30.60;65.70
45983;DHT22;31711;47.158;7.346;2022-08-04T18:52:27;30.60;65.80
45983;DHT22;31711;47.158;7.346;2022-08-04T18:54:53;30.60;65.60
45983;DHT22;31711;47.158;7.346;2022-08-04T18:57:24;30.50;65.90
45983;DHT22;31711;47.158;7.346;2022-08-04T18:59:51;30.50;65.90
45983;DHT22;31711;47.158;7.346;2022-08-04T19:02:17;30.50;66.20
45983;DHT22;31711;47.158;7.346;2022-08-04T19:04:43;30.40;66.20
45983;DHT22;31711;47.158;7.346;2022-08-04T19:07:09;30.40;65.50
45983;DHT22;31711;47.158;7.346;2022-08-04T19:09:39;30.30;65.60
45983;DHT22;31711;47.158;7.346;2022-08-04T19:12:07;30.30;66.00
45983;DHT22;31711;47.158;7.346;2022-08-04T19:14:33;30.20;66.10
45983;DHT22;31711;47.158;7.346;2022-08-04T19:16:59;30.10;66.10
45983;DHT22;31711;47.158;7.346;2022-08-04T19:19:25;30.00;65.90
45983;DHT22;31711;47.158;7.346;2022-08-04T19:21:51;30.00;65.90
45983;DHT22;31711;47.158;7.346;2022-08-04T19:24:17;29.90;67.60
45983;DHT22;31711;47.158;7.346;2022-08-04T19:26:43;29.80;68.90
45983;DHT22;31711;47.158;7.346;2022-08-04T19:29:18;29.60;69.20
45983;DHT22;31711;47.158;7.346;2022-08-04T19:31:44;29.40;69.80
45983;DHT22;31711;47.158;7.346;2022-08-04T19:34:10;29.30;70.90
45983;DHT22;31711;47.158;7.346;2022-08-04T19:36:37;29.20;70.50
45983;DHT22;31711;47.158;7.346;2022-08-04T19:39:06;29.10;70.40
45983;DHT22;31711;47.158;7.346;2022-08-04T19:41:32;29.10;70.80
45983;DHT22;31711;47.158;7.346;2022-08-04T19:44:04;29.00;72.50
45983;DHT22;31711;47.158;7.346;2022-08-04T19:46:31;28.80;72.70
45983;DHT22;31711;47.158;7.346;2022-08-04T19:48:57;28.70;74.60
45983;DHT22;31711;47.158;7.346;2022-08-04T19:51:23;28.60;76.30
45983;DHT22;31711;47.158;7.346;2022-08-04T19:53:49;28.40;74.50
45983;DHT22;31711;47.158;7.346;2022-08-04T19:56:15;28.40;75.50
45983;DHT22;31711;47.158;7.346;2022-08-04T19:58:44;28.20;74.70
45983;DHT22;31711;47.158;7.346;2022-08-04T20:01:11;28.30;74.10
45983;DHT22;31711;47.158;7.346;2022-08-04T20:03:37;28.30;74.00
45983;DHT22;31711;47.158;7.346;2022-08-04T20:06:03;28.30;75.80
45983;DHT22;31711;47.158;7.346;2022-08-04T20:08:29;28.20;76.70
45983;DHT22;31711;47.158;7.346;2022-08-04T20:10:56;28.10;76.60
45983;DHT22;31711;47.158;7.346;2022-08-04T20:13:22;28.10;76.70
45983;DHT22;31711;47.158;7.346;2022-08-04T20:15:49;28.10;76.50
45983;DHT22;31711;47.158;7.346;2022-08-04T20:18:17;27.90;78.90
45983;DHT22;31711;47.158;7.346;2022-08-04T20:20:43;27.80;77.30
45983;DHT22;31711;47.158;7.346;2022-08-04T20:23:09;27.80;76.90
45983;DHT22;31711;47.158;7.346;2022-08-04T20:25:35;27.60;80.30
45983;DHT22;31711;47.158;7.346;2022-08-04T20:28:00;27.50;77.20
45983;DHT22;31711;47.158;7.346;2022-08-04T20:30:29;27.40;79.40